createdAt,value
2023-03-06T00:00:56.936Z,5.30
2023-03-06T00:03:27.880Z,5.30
2023-03-06T00:05:57.642Z,5.30
2023-03-06T00:08:26.735Z,5.30
2023-03-06T00:10:54.865Z,5.30
2023-03-06T00:13:24.066Z,5.30
2023-03-06T00:15:51.855Z,5.30
2023-03-06T00:18:19.506Z,5.20
2023-03-06T00:20:47.401Z,5.30
2023-03-06T00:23:14.942Z,5.20
2023-03-06T00:25:44.855Z,5.20
2023-03-06T00:28:14.930Z,5.20
2023-03-06T00:30:43.455Z,5.20
2023-03-06T00:35:40.839Z,5.20
2023-03-06T00:38:11.278Z,5.30
2023-03-06T00:40:38.978Z,5.20
2023-03-06T00:43:06.623Z,5.30
2023-03-06T00:45:34.466Z,5.30
2023-03-06T00:48:02.106Z,5.30
2023-03-06T00:50:29.739Z,5.30
2023-03-06T00:52:57.356Z,2.50
2023-03-06T00:57:53.888Z,5.20
2023-03-06T01:00:21.674Z,5.20
2023-03-06T01:02:50.737Z,5.10
2023-03-06T01:05:18.356Z,5.00
2023-03-06T01:07:45.965Z,5.00
2023-03-06T01:10:13.650Z,4.90
2023-03-06T01:12:41.800Z,4.90
2023-03-06T01:15:11.356Z,4.90
2023-03-06T01:17:39.084Z,4.90
2023-03-06T01:20:07.310Z,4.80
2023-03-06T01:22:34.887Z,4.80
2023-03-06T01:25:02.520Z,4.80
2023-03-06T01:27:30.186Z,4.80
2023-03-06T01:29:57.953Z,4.80
2023-03-06T01:32:25.573Z,4.80
2023-03-06T01:34:53.192Z,4.80
2023-03-06T01:37:20.733Z,4.80
2023-03-06T01:39:48.314Z,4.80
2023-03-06T01:42:16.217Z,4.80
2023-03-06T01:44:59.650Z,4.80
2023-03-06T01:47:27.598Z,4.80
2023-03-06T01:49:56.240Z,4.80
2023-03-06T01:52:28.476Z,4.80
2023-03-06T01:55:24.747Z,4.80
2023-03-06T01:57:57.711Z,4.80
2023-03-06T02:00:28.198Z,4.80
2023-03-06T02:03:15.816Z,4.80
2023-03-06T02:05:44.646Z,4.80
2023-03-06T02:08:15.313Z,4.80
2023-03-06T02:10:55.885Z,4.90
2023-03-06T02:13:23.742Z,4.90
2023-03-06T02:15:52.884Z,4.90
2023-03-06T02:18:20.529Z,4.90
2023-03-06T02:20:57.394Z,4.90
2023-03-06T02:23:53.421Z,4.90
2023-03-06T02:26:22.117Z,4.90
2023-03-06T02:28:49.687Z,5.00
2023-03-06T02:31:24.420Z,4.90
2023-03-06T02:34:27.561Z,4.90
2023-03-06T02:37:06.967Z,4.90
2023-03-06T02:39:42.043Z,4.90
2023-03-06T02:42:10.178Z,4.90
2023-03-06T02:44:37.942Z,4.90
2023-03-06T02:47:30.409Z,4.90
2023-03-06T02:52:25.908Z,4.90
2023-03-06T02:54:53.503Z,4.90
2023-03-06T02:57:21.157Z,4.90
2023-03-06T03:02:18.013Z,4.90
2023-03-06T03:07:14.472Z,4.90
2023-03-06T03:12:11.283Z,4.90
2023-03-06T03:14:39.393Z,4.80
2023-03-06T03:17:07.093Z,4.80
2023-03-06T03:19:35.209Z,4.80
2023-03-06T03:22:02.915Z,4.80
2023-03-06T03:24:30.866Z,4.80
2023-03-06T03:26:58.532Z,4.80
2023-03-06T03:34:25.869Z,4.80
2023-03-06T03:39:22.586Z,4.80
2023-03-06T03:46:46.779Z,4.90
2023-03-06T03:49:20.042Z,4.80
2023-03-06T03:56:47.054Z,4.90
2023-03-06T03:59:21.017Z,4.90
2023-03-06T04:02:27.618Z,4.90
2023-03-06T04:07:33.923Z,4.90
2023-03-06T04:14:59.915Z,4.90
2023-03-06T04:17:28.220Z,4.90
2023-03-06T04:19:56.993Z,4.90
2023-03-06T04:24:53.120Z,4.90
2023-03-06T04:27:21.571Z,4.90
2023-03-06T04:29:49.831Z,4.90
2023-03-06T04:32:18.721Z,4.90
2023-03-06T04:34:48.053Z,4.90
2023-03-06T04:37:21.087Z,4.90
2023-03-06T04:39:48.990Z,4.90
2023-03-06T04:42:17.172Z,4.90
2023-03-06T04:44:44.938Z,5.00
2023-03-06T04:47:12.763Z,4.90
2023-03-06T04:49:40.851Z,4.90
2023-03-06T04:52:08.492Z,5.00
2023-03-06T04:59:32.505Z,5.00
2023-03-06T05:04:28.354Z,5.00
2023-03-06T05:06:55.914Z,5.00
2023-03-06T05:09:23.615Z,5.10
2023-03-06T05:11:51.430Z,5.10
2023-03-06T05:14:19.052Z,5.10
2023-03-06T05:16:46.716Z,5.10
2023-03-06T05:19:14.604Z,5.10
2023-03-06T05:24:10.311Z,5.10
2023-03-06T05:26:37.909Z,5.20
2023-03-06T05:29:05.960Z,5.10
2023-03-06T05:31:33.687Z,5.10
2023-03-06T05:34:01.388Z,5.20
2023-03-06T05:38:56.770Z,5.20
2023-03-06T05:41:24.344Z,5.20
2023-03-06T05:43:53.851Z,5.20
2023-03-06T05:46:21.485Z,5.20
2023-03-06T05:48:49.233Z,5.20
2023-03-06T05:51:16.812Z,5.20
2023-03-06T05:53:44.508Z,5.20
2023-03-06T05:56:12.085Z,5.30
2023-03-06T05:58:40.006Z,5.20
2023-03-06T06:01:13.535Z,5.20
2023-03-06T06:03:41.808Z,5.20
2023-03-06T06:06:12.180Z,5.20
2023-03-06T06:08:40.818Z,5.20
2023-03-06T06:11:10.444Z,5.20
2023-03-06T06:13:38.607Z,5.20
2023-03-06T06:16:11.503Z,5.20
2023-03-06T06:18:41.328Z,5.20
2023-03-06T06:21:11.983Z,5.20
2023-03-06T06:23:39.547Z,5.20
2023-03-06T06:26:09.414Z,5.20
2023-03-06T06:28:37.483Z,5.20
2023-03-06T06:31:12.514Z,5.20
2023-03-06T06:33:40.765Z,5.20
2023-03-06T06:36:34.318Z,5.20
2023-03-06T06:39:02.540Z,5.20
2023-03-06T06:41:46.547Z,5.20
2023-03-06T06:44:18.915Z,5.20
2023-03-06T06:49:35.522Z,5.20
2023-03-06T06:52:04.362Z,5.20
2023-03-06T06:54:34.277Z,5.20
2023-03-06T06:57:01.875Z,5.20
2023-03-06T06:59:29.540Z,5.20
2023-03-06T07:01:57.076Z,5.30
2023-03-06T07:04:24.687Z,5.30
2023-03-06T07:06:55.998Z,5.30
2023-03-06T07:09:24.029Z,5.30
2023-03-06T07:11:51.594Z,5.30
2023-03-06T07:14:19.185Z,5.40
2023-03-06T07:16:46.752Z,5.30
2023-03-06T07:19:14.372Z,5.30
2023-03-06T07:21:41.925Z,5.40
2023-03-06T07:24:09.604Z,5.40
2023-03-06T07:26:37.306Z,5.40
2023-03-06T07:29:05.156Z,5.40
2023-03-06T07:31:32.797Z,5.40
2023-03-06T07:34:01.915Z,5.50
2023-03-06T07:36:30.800Z,5.50
2023-03-06T07:38:58.351Z,5.50
2023-03-06T07:41:26.012Z,5.50
2023-03-06T07:43:53.514Z,5.50
2023-03-06T07:46:21.174Z,5.60
2023-03-06T07:48:48.719Z,5.60
2023-03-06T07:51:19.488Z,5.60
2023-03-06T07:53:47.833Z,5.60
2023-03-06T07:56:16.016Z,5.60
2023-03-06T07:58:45.764Z,5.70
2023-03-06T08:01:16.180Z,5.70
2023-03-06T08:03:44.533Z,5.70
2023-03-06T08:06:15.356Z,5.70
2023-03-06T08:08:46.327Z,5.80
2023-03-06T08:11:15.549Z,5.80
2023-03-06T08:13:43.528Z,5.90
2023-03-06T08:16:11.959Z,5.90
2023-03-06T08:18:44.960Z,5.90
2023-03-06T08:21:18.862Z,5.90
2023-03-06T08:23:47.380Z,6.00
2023-03-06T08:26:21.066Z,7.40
2023-03-06T08:28:50.726Z,6.10
2023-03-06T08:31:34.789Z,6.10
2023-03-06T08:34:05.072Z,6.20
2023-03-06T08:36:33.260Z,6.30
2023-03-06T08:39:01.274Z,6.40
2023-03-06T08:41:29.398Z,6.40
2023-03-06T08:43:57.373Z,6.40
2023-03-06T08:46:26.760Z,6.50
2023-03-06T08:48:54.462Z,6.60
2023-03-06T08:51:22.852Z,6.60
2023-03-06T08:53:51.839Z,6.60
2023-03-06T08:56:25.456Z,6.60
2023-03-06T08:58:53.617Z,6.60
2023-03-06T09:01:27.192Z,6.60
2023-03-06T09:03:57.248Z,6.60
2023-03-06T09:06:27.365Z,6.60
2023-03-06T09:08:55.183Z,6.60
2023-03-06T09:11:24.305Z,6.70
2023-03-06T09:13:53.264Z,6.70
2023-03-06T09:16:21.630Z,6.70
2023-03-06T09:18:52.789Z,6.70
2023-03-06T09:21:22.442Z,6.70
2023-03-06T09:23:50.298Z,6.80
2023-03-06T09:26:18.722Z,6.90
2023-03-06T09:28:46.730Z,7.10
2023-03-06T09:31:17.121Z,7.20
2023-03-06T09:33:45.377Z,7.30
2023-03-06T09:36:19.567Z,7.40
2023-03-06T09:38:49.785Z,7.50
2023-03-06T09:41:26.387Z,7.50
2023-03-06T09:44:14.614Z,7.50
2023-03-06T09:46:59.493Z,7.50
2023-03-06T09:49:38.986Z,7.50
2023-03-06T09:52:29.500Z,7.50
2023-03-06T09:55:11.493Z,7.40
2023-03-06T09:57:45.435Z,7.40
2023-03-06T10:00:16.500Z,7.50
2023-03-06T10:02:59.529Z,7.50
2023-03-06T10:05:34.999Z,7.50
2023-03-06T10:08:06.565Z,7.40
2023-03-06T10:10:46.700Z,7.30
2023-03-06T10:13:26.845Z,7.20
2023-03-06T10:16:03.347Z,7.20
2023-03-06T10:18:31.675Z,7.20
2023-03-06T10:21:18.355Z,7.20
2023-03-06T10:23:55.210Z,7.20
2023-03-06T10:26:33.647Z,7.20
2023-03-06T10:29:31.195Z,7.20
2023-03-06T10:32:24.779Z,7.30
2023-03-06T10:34:53.331Z,7.30
2023-03-06T10:37:22.862Z,7.50
2023-03-06T10:39:57.617Z,7.50
2023-03-06T10:42:25.253Z,7.50
2023-03-06T10:45:11.859Z,7.50
2023-03-06T10:47:40.332Z,7.60
2023-03-06T10:50:31.530Z,7.60
2023-03-06T10:53:05.793Z,7.70
2023-03-06T10:55:35.959Z,7.80
2023-03-06T10:58:24.391Z,8.00
2023-03-06T11:01:06.918Z,8.00
2023-03-06T11:03:36.349Z,8.10
2023-03-06T11:06:14.460Z,8.00
2023-03-06T11:08:44.482Z,8.10
2023-03-06T11:11:18.551Z,8.10
2023-03-06T11:13:59.111Z,8.10
2023-03-06T11:16:32.251Z,8.00
2023-03-06T11:19:03.967Z,7.90
2023-03-06T11:21:34.970Z,7.90
2023-03-06T11:24:15.501Z,7.90
2023-03-06T11:27:15.774Z,7.80
2023-03-06T11:29:48.416Z,7.70
2023-03-06T11:32:23.839Z,7.60
2023-03-06T11:35:10.070Z,7.60
2023-03-06T11:37:43.573Z,7.70
2023-03-06T11:40:11.095Z,7.70
2023-03-06T11:42:57.495Z,7.70
2023-03-06T11:45:34.991Z,7.60
2023-03-06T11:48:14.377Z,7.60
2023-03-06T11:50:47.633Z,7.60
2023-03-06T11:53:34.994Z,7.80
2023-03-06T11:56:19.942Z,7.90
2023-03-06T11:59:07.755Z,7.90
2023-03-06T12:01:41.784Z,7.80
2023-03-06T12:04:24.536Z,7.70
2023-03-06T12:07:07.989Z,7.60
2023-03-06T12:09:57.461Z,7.50
2023-03-06T12:12:43.874Z,7.50
2023-03-06T12:15:37.273Z,7.40
2023-03-06T12:18:21.924Z,7.40
2023-03-06T12:21:03.180Z,7.40
2023-03-06T12:23:43.030Z,7.30
2023-03-06T12:26:54.900Z,7.20
2023-03-06T12:29:22.385Z,7.00
2023-03-06T12:31:53.005Z,7.00
2023-03-06T12:34:39.152Z,7.00
2023-03-06T12:37:38.385Z,7.00
2023-03-06T12:40:27.627Z,6.90
2023-03-06T12:43:38.865Z,6.90
2023-03-06T12:46:15.330Z,6.90
2023-03-06T12:48:48.666Z,6.90
2023-03-06T12:51:20.431Z,7.00
2023-03-06T12:53:49.861Z,7.10
2023-03-06T12:56:19.151Z,7.10
2023-03-06T12:58:50.239Z,7.10
2023-03-06T13:01:35.636Z,7.10
2023-03-06T13:04:22.502Z,7.10
2023-03-06T13:07:33.394Z,7.10
2023-03-06T13:10:10.966Z,7.20
2023-03-06T13:13:00.706Z,7.40
2023-03-06T13:15:38.970Z,7.60
2023-03-06T13:18:21.849Z,7.70
2023-03-06T13:20:53.284Z,7.70
2023-03-06T13:23:29.825Z,7.70
2023-03-06T13:25:58.317Z,7.80
2023-03-06T13:28:38.071Z,7.90
2023-03-06T13:31:07.415Z,7.90
2023-03-06T13:33:38.303Z,7.80
2023-03-06T13:36:29.612Z,7.80
2023-03-06T13:38:57.408Z,7.80
2023-03-06T13:41:24.957Z,7.80
2023-03-06T13:43:55.128Z,7.80
2023-03-06T13:46:37.827Z,7.80
2023-03-06T13:49:08.316Z,7.90
2023-03-06T13:51:38.536Z,7.90
2023-03-06T13:54:26.517Z,7.90
2023-03-06T13:57:16.046Z,7.90
2023-03-06T14:00:03.197Z,8.00
2023-03-06T14:02:56.556Z,8.10
2023-03-06T14:05:25.612Z,8.20
2023-03-06T14:08:16.898Z,8.20
2023-03-06T14:10:46.294Z,8.20
2023-03-06T14:13:18.662Z,8.20
2023-03-06T14:15:50.842Z,8.20
2023-03-06T14:18:49.179Z,8.10
2023-03-06T14:21:27.792Z,8.10
2023-03-06T14:24:01.438Z,8.20
2023-03-06T14:26:43.936Z,8.10
2023-03-06T14:29:26.821Z,8.00
2023-03-06T14:31:57.550Z,8.00
2023-03-06T14:34:27.521Z,7.80
2023-03-06T14:37:05.541Z,7.70
2023-03-06T14:39:44.075Z,7.50
2023-03-06T14:42:29.230Z,7.30
2023-03-06T14:45:16.377Z,7.30
2023-03-06T14:47:49.746Z,7.30
2023-03-06T14:50:35.300Z,7.30
2023-03-06T14:53:22.609Z,7.20
2023-03-06T14:56:00.471Z,7.20
2023-03-06T14:58:41.048Z,7.20
2023-03-06T15:01:10.515Z,7.10
2023-03-06T15:03:52.046Z,7.10
2023-03-06T15:06:23.208Z,7.10
2023-03-06T15:09:00.787Z,7.00
2023-03-06T15:11:51.745Z,7.00
2023-03-06T15:14:22.578Z,7.00
2023-03-06T15:16:50.193Z,6.90
2023-03-06T15:19:20.762Z,6.90
2023-03-06T15:21:51.750Z,6.80
2023-03-06T15:24:36.968Z,6.80
2023-03-06T15:27:06.909Z,6.50
2023-03-06T15:29:38.918Z,6.50
2023-03-06T15:32:33.464Z,6.30
2023-03-06T15:35:30.341Z,6.30
2023-03-06T15:37:58.801Z,6.20
2023-03-06T15:40:30.804Z,6.20
2023-03-06T15:42:59.019Z,6.10
2023-03-06T15:45:29.438Z,6.10
2023-03-06T15:47:57.129Z,6.10
2023-03-06T15:50:28.541Z,6.10
2023-03-06T15:52:56.114Z,6.10
2023-03-06T15:55:28.279Z,6.10
2023-03-06T15:58:02.375Z,6.20
2023-03-06T16:00:34.228Z,6.20
2023-03-06T16:03:02.961Z,6.20
2023-03-06T16:05:31.273Z,6.20
2023-03-06T16:07:59.018Z,6.30
2023-03-06T16:10:29.760Z,6.20
2023-03-06T16:13:04.264Z,6.20
2023-03-06T16:15:38.432Z,6.20
2023-03-06T16:18:06.585Z,6.10
2023-03-06T16:20:34.184Z,6.10
2023-03-06T16:23:05.563Z,6.00
2023-03-06T16:25:33.290Z,6.10
2023-03-06T16:28:02.145Z,6.10
2023-03-06T16:30:35.691Z,6.10
2023-03-06T16:33:03.584Z,6.20
2023-03-06T16:35:31.195Z,6.20
2023-03-06T16:38:00.124Z,6.20
2023-03-06T16:40:37.696Z,6.20
2023-03-06T16:43:05.743Z,6.20
2023-03-06T16:45:37.672Z,6.20
2023-03-06T16:48:05.853Z,6.20
2023-03-06T16:50:37.882Z,6.20
2023-03-06T16:53:06.432Z,6.20
2023-03-06T16:55:34.348Z,6.20
2023-03-06T16:58:02.079Z,6.20
2023-03-06T17:00:32.126Z,6.10
2023-03-06T17:03:01.133Z,6.20
2023-03-06T17:05:29.509Z,6.10
2023-03-06T17:07:57.171Z,6.10
2023-03-06T17:10:26.530Z,6.10
2023-03-06T17:12:55.689Z,5.90
2023-03-06T17:15:23.823Z,5.80
2023-03-06T17:17:53.217Z,5.70
2023-03-06T17:20:20.932Z,5.70
2023-03-06T17:22:48.641Z,5.60
2023-03-06T17:25:16.242Z,5.60
2023-03-06T17:27:43.841Z,5.50
2023-03-06T17:30:12.229Z,5.50
2023-03-06T17:32:42.771Z,5.50
2023-03-06T17:35:10.386Z,5.50
2023-03-06T17:37:39.224Z,5.60
2023-03-06T17:40:10.673Z,5.50
2023-03-06T17:42:38.428Z,5.50
2023-03-06T17:45:09.206Z,5.50
2023-03-06T17:47:36.916Z,5.50
2023-03-06T17:50:04.751Z,5.50
2023-03-06T17:52:32.384Z,5.40
2023-03-06T17:54:59.968Z,5.40
2023-03-06T17:57:27.714Z,5.30
2023-03-06T17:59:56.435Z,5.30
2023-03-06T18:02:24.434Z,5.20
2023-03-06T18:04:52.515Z,5.20
2023-03-06T18:07:20.354Z,5.10
2023-03-06T18:09:47.973Z,5.00
2023-03-06T18:12:15.781Z,5.00
2023-03-06T18:14:43.770Z,4.90
2023-03-06T18:17:11.321Z,4.90
2023-03-06T18:19:38.940Z,4.80
2023-03-06T18:22:06.635Z,4.80
2023-03-06T18:24:34.198Z,4.70
2023-03-06T18:27:01.750Z,4.70
2023-03-06T18:29:29.371Z,4.70
2023-03-06T18:31:59.226Z,4.70
2023-03-06T18:34:26.878Z,4.70
2023-03-06T18:36:54.467Z,4.70
2023-03-06T18:39:22.090Z,4.70
2023-03-06T18:41:49.806Z,4.70
2023-03-06T18:44:17.742Z,4.70
2023-03-06T18:46:45.361Z,4.70
2023-03-06T18:49:13.920Z,4.60
2023-03-06T18:51:42.086Z,4.60
2023-03-06T18:54:11.305Z,4.50
2023-03-06T18:56:43.414Z,4.40
2023-03-06T18:59:18.492Z,4.40
2023-03-06T19:01:47.877Z,4.30
2023-03-06T19:04:15.490Z,4.30
2023-03-06T19:06:43.231Z,4.20
2023-03-06T19:09:11.416Z,4.20
2023-03-06T19:11:39.122Z,4.20
2023-03-06T19:14:06.987Z,4.20
2023-03-06T19:16:35.196Z,4.20
2023-03-06T19:21:31.676Z,4.20
2023-03-06T19:23:59.459Z,4.20
2023-03-06T19:31:27.368Z,4.30
2023-03-06T19:33:56.836Z,4.30
2023-03-06T19:36:28.758Z,4.30
2023-03-06T19:39:01.263Z,4.30
2023-03-06T19:41:29.760Z,4.50
2023-03-06T19:43:59.532Z,4.40
2023-03-06T19:48:57.081Z,4.50
2023-03-06T19:51:25.409Z,4.50
2023-03-06T19:53:53.525Z,4.50
2023-03-06T19:56:26.092Z,4.50
2023-03-06T20:01:23.434Z,4.50
2023-03-06T20:03:58.488Z,4.50
2023-03-06T20:06:28.873Z,4.50
2023-03-06T20:11:26.950Z,4.40
2023-03-06T20:16:22.376Z,5.10
2023-03-06T20:18:49.905Z,4.20
2023-03-06T20:26:14.426Z,4.60
2023-03-06T20:28:43.057Z,4.50
2023-03-06T20:31:13.514Z,4.50
2023-03-06T20:36:20.655Z,4.50
2023-03-06T20:38:49.219Z,4.20
2023-03-06T20:46:13.032Z,4.30
2023-03-06T21:30:47.619Z,4.30
2023-03-06T21:43:09.449Z,4.00
2023-03-06T21:50:32.819Z,4.50
2023-03-06T21:53:00.402Z,4.30
2023-03-06T21:55:27.942Z,4.40
2023-03-06T22:12:46.583Z,4.50
2023-03-06T22:15:14.144Z,4.40
2023-03-06T22:20:10.466Z,4.30
2023-03-06T22:47:17.066Z,4.20
2023-03-06T22:54:42.740Z,4.10
2023-03-06T22:57:10.337Z,4.20
2023-03-06T23:12:16.062Z,4.10
2023-03-06T23:17:51.354Z,3.80
2023-03-06T23:20:43.509Z,3.60
2023-03-06T23:26:00.595Z,3.80
2023-03-06T23:28:28.742Z,3.50
2023-03-06T23:30:56.383Z,3.80
2023-03-06T23:35:52.113Z,3.80
2023-03-06T23:53:16.632Z,3.80
2023-03-06T23:55:49.348Z,3.80
